map of QAR home
QAR - Airport
Location
City:  Arnhem, Gelderland, Netherlands
Near (Alt.):Deelen
Name:Deelen AB
ICAO:EHDL
IATA:QAR

Details
Type:Airport (Aerodrome, Airfield)
Use:Military
Latitude:5203'38"N (52.060556)
Longitude:552'23"E (5.873056)
Datum:WGS 1984
Elevation:158 ft (48 m)
Variation:1.80E (WMM2015v2 magnetic declination)
0.18 annual change
Runways:1
Longest:9678 × 164 ft (2950 × 50 m), paved

Time
Time Zone:UTC+1 (DST+2)
Local Time:

Weather
METAR:EHDL 041355Z AUTO 20020G30KT 150V250 9999 DZRA FEW020 SCT028 BKN031 03/M00 Q1022 BLU

Related Locations
Nearby:
Farthest:CHT: 11850 mi / 19071 km
Waitangi [Tuuta], CIT, NZ

Find:

   beyond  
but within

Other Information
Maps:
NOTAMs:
Links:
Sources:

  
  • flag of Netherlands
  • flag of Gelderland
  

Sectional Chart

Flight Planning
at skyvector.com

Satellite Image

Google Maps Satellite view

 

Copyright © 2004-2019 Karl L. Swartz. All rights reserved.
The Great Circle Mapper name and logo are trademarks of the Great Circle Mapper.
All other trademarks mentioned herein belong to their respective owners.
Please see credits for attibutions and further copyright information.

  Follow gcmap on Facebook Follow gcmap on Twitter GCmap on LinkedIn

hCard Microformat

Geo Microformat